Time;durP1;ratioP1;P1;durP2;ratioP2;P2;SDS_P1;SDS_P2;PMS_P1;PMS_P2;Temp;Humidity;BMP_temperature;BMP_pressure;BME280_temperature;BME280_humidity;BME280_pressure;Samples;Min_cycle;Max_cycle;Signal;HPM_P1;HPM_P2
2023/03/11 00:02:16;;;;;;;1999.90;999.90;;;4.50;99.90;;;;;;4992783;28;20049;-83
2023/03/11 00:04:43;;;;;;;1999.90;999.90;;;3.20;99.90;;;;;;4993013;28;20160;-84
2023/03/11 00:07:10;;;;;;;1999.90;999.90;;;0.80;99.90;;;;;;4992789;28;20057;-84
2023/03/11 00:09:36;;;;;;;1999.90;999.90;;;4.60;99.90;;;;;;4973420;28;20403;-84
2023/03/11 00:12:02;;;;;;;1999.90;999.90;;;2.00;99.90;;;;;;4975379;28;20058;-84
2023/03/11 00:14:28;;;;;;;1999.90;999.90;;;1.90;99.90;;;;;;4994205;28;20038;-83
2023/03/11 00:16:54;;;;;;;1999.90;999.90;;;4.50;99.90;;;;;;4994867;28;20064;-83
2023/03/11 00:19:20;;;;;;;1999.90;999.90;;;1.40;99.90;;;;;;4994304;28;20526;-83
2023/03/11 00:21:46;;;;;;;1999.90;999.90;;;;;;;;;;4984848;28;20129;-83
2023/03/11 00:24:12;;;;;;;1999.90;999.90;;;2.80;99.90;;;;;;4986791;28;20077;-83
2023/03/11 00:26:38;;;;;;;1999.90;999.90;;;4.10;99.90;;;;;;4988771;28;20137;-83
2023/03/11 00:29:04;;;;;;;1999.90;999.90;;;1.30;99.90;;;;;;4991100;28;20035;-84
2023/03/11 00:31:30;;;;;;;1999.90;999.90;;;3.10;99.90;;;;;;4992766;28;20046;-84
2023/03/11 00:33:56;;;;;;;1999.90;999.90;;;;;;;;;;4993237;28;20038;-84
2023/03/11 00:36:27;;;;;;;1999.90;999.90;;;2.70;99.90;;;;;;4992512;28;20054;-84
2023/03/11 00:38:53;;;;;;;1999.90;999.90;;;2.40;99.90;;;;;;4992440;28;20332;-83
2023/03/11 00:41:19;;;;;;;1999.90;999.90;;;1.30;1.00;;;;;;4992285;28;20057;-84
2023/03/11 00:43:45;;;;;;;1999.90;999.90;;;1.90;1.00;;;;;;4992990;28;20081;-84
2023/03/11 00:46:11;;;;;;;1999.90;999.90;;;;;;;;;;4993077;28;20046;-83
2023/03/11 00:48:37;;;;;;;1999.90;999.90;;;2.40;1.00;;;;;;4992059;28;20073;-83
2023/03/11 00:51:03;;;;;;;1999.90;999.90;;;;;;;;;;4993848;28;20376;-83
2023/03/11 00:53:29;;;;;;;1999.90;999.90;;;2.80;1.00;;;;;;4990980;28;20056;-82
2023/03/11 00:55:54;;;;;;;1999.90;999.90;;;5.00;1.00;;;;;;4991869;28;20566;-83
2023/03/11 00:58:26;;;;;;;1999.90;999.90;;;;;;;;;;4992329;28;20096;-83
2023/03/11 01:00:52;;;;;;;1999.90;999.90;;;;;;;;;;4993908;28;20054;-83
2023/03/11 01:03:18;;;;;;;1999.90;999.90;;;1.80;1.00;;;;;;4992181;28;20046;-83
2023/03/11 01:05:43;;;;;;;1999.90;999.90;;;2.00;1.00;;;;;;4991697;28;20053;-83
2023/03/11 01:08:09;;;;;;;1999.90;999.90;;;4.60;1.00;;;;;;4993878;28;20094;-83
2023/03/11 01:10:35;;;;;;;1999.90;999.90;;;;;;;;;;4991491;28;20148;-82
2023/03/11 01:13:02;;;;;;;1999.90;999.90;;;2.40;1.00;;;;;;4992124;28;20052;-83
2023/03/11 01:15:34;;;;;;;1999.90;999.90;;;5.40;24.10;;;;;;4989377;28;20046;-84
2023/03/11 01:18:01;;;;;;;1999.90;999.90;;;5.00;1.00;;;;;;4993591;28;20046;-83
2023/03/11 01:20:27;;;;;;;1999.90;999.90;;;3.20;99.90;;;;;;4992804;28;20049;-84
2023/03/11 01:22:53;;;;;;;1999.90;999.90;;;3.90;92.40;;;;;;4992474;28;20050;-83
2023/03/11 01:25:20;;;;;;;1999.90;999.90;;;2.30;99.90;;;;;;4990297;28;20042;-89
2023/03/11 01:27:46;;;;;;;1999.90;999.90;;;2.40;99.90;;;;;;4993742;28;20058;-84
2023/03/11 01:30:17;;;;;;;1999.90;999.90;;;1.80;99.90;;;;;;4986790;28;20214;-83
2023/03/11 01:32:42;;;;;;;1999.90;999.90;;;2.30;99.90;;;;;;4991933;28;20049;-83
2023/03/11 01:35:11;;;;;;;1999.90;999.90;;;1.70;99.90;;;;;;4990273;28;20047;-84
2023/03/11 01:37:37;;;;;;;1999.90;999.90;;;4.60;99.90;;;;;;4992599;28;20117;-83
2023/03/11 01:40:03;;;;;;;1999.90;999.90;;;1.10;99.90;;;;;;4990814;28;20042;-83
2023/03/11 01:42:29;;;;;;;1999.90;999.90;;;4.80;99.90;;;;;;4991964;28;20502;-83
2023/03/11 01:44:55;;;;;;;1999.90;999.90;;;1.90;99.90;;;;;;4992223;28;20046;-83
2023/03/11 01:47:39;;;;;;;1999.90;999.90;;;2.30;99.90;;;;;;4990193;28;20046;-89
2023/03/11 01:50:11;;;;;;;1999.90;999.90;;;2.30;99.90;;;;;;4993170;28;20136;-83
2023/03/11 01:52:37;;;;;;;1999.90;999.90;;;3.20;99.90;;;;;;4993092;28;20550;-83
2023/03/11 01:55:05;;;;;;;1999.90;999.90;;;3.50;1.00;;;;;;4974389;28;20050;-86
2023/03/11 01:57:31;;;;;;;1999.90;999.90;;;2.10;99.90;;;;;;4984702;28;20108;-84
2023/03/11 01:59:59;;;;;;;1999.90;999.90;;;3.80;99.90;;;;;;4993105;28;20129;-83
2023/03/11 02:02:34;;;;;;;1999.90;999.90;;;2.40;1.00;;;;;;4996194;28;20068;-83
2023/03/11 02:05:01;;;;;;;1999.90;999.90;;;2.20;1.00;;;;;;4998220;28;20042;-83
2023/03/11 02:07:27;;;;;;;1999.90;999.90;;;2.10;1.00;;;;;;4995379;28;20051;-83
2023/03/11 02:09:53;;;;;;;1999.90;999.90;;;;;;;;;;4978916;28;20066;-83
2023/03/11 02:12:20;;;;;;;1999.90;999.90;;;2.30;1.00;;;;;;4994528;28;20140;-83
2023/03/11 02:14:49;;;;;;;1999.90;999.90;;;3.00;1.00;;;;;;4997879;28;20042;-83
2023/03/11 02:17:16;;;;;;;1999.90;999.90;;;4.50;1.00;;;;;;4999287;28;20124;-84
2023/03/11 02:20:01;;;;;;;1999.90;999.90;;;2.10;1.00;;;;;;4999274;28;20056;-83
2023/03/11 02:22:32;;;;;;;1999.90;999.90;;;1.50;1.00;;;;;;4982380;28;20129;-84
2023/03/11 02:25:08;;;;;;;1999.90;999.90;;;1.80;1.00;;;;;;4984150;28;20418;-83
2023/03/11 02:27:40;;;;;;;1999.90;999.90;;;3.20;1.00;;;;;;4998878;28;20049;-83
2023/03/11 02:30:07;;;;;;;1999.90;999.90;;;4.00;1.00;;;;;;4997436;28;20053;-83
2023/03/11 02:32:33;;;;;;;1999.90;999.90;;;;;;;;;;4998822;28;20046;-84
2023/03/11 02:34:59;;;;;;;1999.90;999.90;;;3.40;1.00;;;;;;4998246;28;20109;-84
2023/03/11 02:37:24;;;;;;;1999.90;999.90;;;4.80;1.00;;;;;;4994553;28;20126;-85
2023/03/11 02:39:53;;;;;;;1999.90;999.90;;;2.10;1.00;;;;;;4992672;28;20065;-86
2023/03/11 02:42:24;;;;;;;1999.90;999.90;;;1.90;1.00;;;;;;4977498;28;20056;-84
2023/03/11 02:45:01;;;;;;;1999.90;999.90;;;1.40;99.90;;;;;;4991403;28;20038;-84
2023/03/11 02:47:27;;;;;;;1999.90;999.90;;;1.30;99.90;;;;;;4992054;28;20050;-84
2023/03/11 02:49:55;;;;;;;1999.90;999.90;;;1.50;99.90;;;;;;4992888;28;20126;-85
2023/03/11 02:52:21;;;;;;;1999.90;999.90;;;2.00;99.90;;;;;;4993957;28;20034;-83
2023/03/11 02:54:47;;;;;;;1999.90;999.90;;;1.60;99.90;;;;;;4993159;28;20126;-84
2023/03/11 02:57:12;;;;;;;1999.90;999.90;;;1.70;99.90;;;;;;4996130;28;20125;-86
2023/03/11 02:59:38;;;;;;;1999.90;999.90;;;3.10;99.90;;;;;;4998061;28;20057;-84
2023/03/11 03:02:04;;;;;;;1999.90;999.90;;;4.40;99.90;;;;;;4996331;28;20598;-84
2023/03/11 03:04:30;;;;;;;1999.90;999.90;;;;;;;;;;4994230;28;20039;-90
2023/03/11 03:06:56;;;;;;;1999.90;999.90;;;1.70;1.00;;;;;;4996972;28;20056;-84
2023/03/11 03:09:21;;;;;;;1999.90;999.90;;;3.70;1.00;;;;;;4989190;28;20046;-84
2023/03/11 03:11:47;;;;;;;1999.90;999.90;;;0.40;1.00;;;;;;4994734;28;20073;-84
2023/03/11 03:14:13;;;;;;;1999.90;999.90;;;2.80;1.00;;;;;;4993707;28;20043;-84
2023/03/11 03:16:38;;;;;;;1999.90;999.90;;;0.30;1.00;;;;;;4991972;28;20082;-84
2023/03/11 03:19:04;;;;;;;1999.90;999.90;;;;;;;;;;4991938;28;20511;-86
2023/03/11 03:21:30;;;;;;;1999.90;999.90;;;;;;;;;;4993106;28;20050;-85
2023/03/11 03:23:57;;;;;;;1999.90;999.90;;;;;;;;;;4992216;28;20503;-85
2023/03/11 03:26:23;;;;;;;1999.90;999.90;;;;;;;;;;4995137;28;20470;-86
2023/03/11 03:28:48;;;;;;;1999.90;999.90;;;0.00;1.00;;;;;;4976262;28;20462;-84
2023/03/11 03:31:14;;;;;;;1999.90;999.90;;;1.00;1.00;;;;;;4991478;28;20129;-85
2023/03/11 03:33:40;;;;;;;1999.90;999.90;;;2.10;1.00;;;;;;4994362;28;20042;-84
2023/03/11 03:36:11;;;;;;;1999.90;999.90;;;1.00;1.00;;;;;;4995132;28;20046;-85
2023/03/11 03:38:37;;;;;;;1999.90;999.90;;;1.70;1.00;;;;;;4992167;28;20487;-88
2023/03/11 03:41:03;;;;;;;1999.90;999.90;;;2.20;1.00;;;;;;4994311;28;20084;-84
2023/03/11 03:43:29;;;;;;;1999.90;999.90;;;;;;;;;;4995092;28;20043;-83
2023/03/11 03:46:00;;;;;;;1999.90;999.90;;;1.10;1.00;;;;;;4994466;28;20050;-84
2023/03/11 03:48:28;;;;;;;1999.90;999.90;;;1.10;1.00;;;;;;4992752;28;20065;-84
2023/03/11 03:50:53;;;;;;;1999.90;999.90;;;2.00;1.00;;;;;;4994804;28;20065;-84
2023/03/11 03:53:20;;;;;;;1999.90;999.90;;;0.40;1.00;;;;;;4992955;28;20451;-83
2023/03/11 03:55:45;;;;;;;1999.90;999.90;;;-0.30;1.00;;;;;;4994210;28;20140;-84
2023/03/11 03:58:14;;;;;;;1999.90;999.90;;;0.60;29.00;;;;;;4992433;28;20078;-86
2023/03/11 04:00:40;;;;;;;1999.90;999.90;;;0.30;17.80;;;;;;4992380;28;20050;-87
2023/03/11 04:03:06;;;;;;;1999.90;999.90;;;2.60;8.60;;;;;;4994206;28;20057;-84
2023/03/11 04:05:31;;;;;;;1999.90;999.90;;;0.30;96.00;;;;;;4994753;28;20050;-84
2023/03/11 04:07:57;;;;;;;1999.90;999.90;;;0.70;41.10;;;;;;4985103;28;20057;-85
2023/03/11 04:10:23;;;;;;;1999.90;999.90;;;;;;;;;;4990896;28;20399;-84
2023/03/11 04:12:49;;;;;;;1999.90;999.90;;;0.40;97.30;;;;;;4993272;28;20479;-84
2023/03/11 04:15:14;;;;;;;1999.90;999.90;;;2.80;99.90;;;;;;4993453;28;20034;-84
2023/03/11 04:17:40;;;;;;;1999.90;999.90;;;-0.40;99.90;;;;;;4994598;28;20082;-84
2023/03/11 04:20:07;;;;;;;1999.90;999.90;;;-0.10;99.90;;;;;;4993657;28;20503;-84
2023/03/11 04:22:33;;;;;;;1999.90;999.90;;;-0.20;99.90;;;;;;4995287;28;20051;-84
2023/03/11 04:24:58;;;;;;;1999.90;999.90;;;1.90;99.90;;;;;;4993862;28;20076;-84
2023/03/11 04:27:25;;;;;;;1999.90;999.90;;;;;;;;;;4993764;28;20054;-85
2023/03/11 04:29:50;;;;;;;1999.90;999.90;;;0.60;99.90;;;;;;4995020;28;20491;-85
2023/03/11 04:32:17;;;;;;;1999.90;999.90;;;;;;;;;;4993583;28;20125;-85
2023/03/11 04:34:43;;;;;;;1999.90;999.90;;;;;;;;;;4993244;28;20133;-85
2023/03/11 04:37:08;;;;;;;1999.90;999.90;;;-0.20;99.90;;;;;;4993735;28;20057;-86
2023/03/11 04:39:34;;;;;;;1999.90;999.90;;;;;;;;;;4993640;28;20058;-84
2023/03/11 04:42:00;;;;;;;1999.90;999.90;;;1.00;99.90;;;;;;4992676;28;20503;-84
2023/03/11 04:44:25;;;;;;;1999.90;999.90;;;2.70;99.90;;;;;;4993671;28;20042;-85
2023/03/11 04:46:51;;;;;;;1999.90;999.90;;;1.10;99.90;;;;;;4993998;28;20054;-85
2023/03/11 04:49:17;;;;;;;1999.90;999.90;;;;;;;;;;4993669;28;20471;-85
2023/03/11 04:51:43;;;;;;;1999.90;999.90;;;1.60;99.90;;;;;;4993072;28;20061;-85
2023/03/11 04:54:09;;;;;;;1999.90;999.90;;;0.90;99.90;;;;;;4991625;28;20046;-84
2023/03/11 04:56:35;;;;;;;1999.90;999.90;;;1.60;99.90;;;;;;4979877;28;20117;-84
2023/03/11 04:59:00;;;;;;;1999.90;999.90;;;0.50;99.90;;;;;;4991170;28;20521;-85
2023/03/11 05:01:27;;;;;;;1999.90;999.90;;;;;;;;;;4991813;28;20046;-83
2023/03/11 05:03:52;;;;;;;1999.90;999.90;;;2.90;99.90;;;;;;4993212;28;20050;-84
2023/03/11 05:06:21;;;;;;;1999.90;999.90;;;;;;;;;;4978003;28;20571;-84
2023/03/11 05:08:47;;;;;;;1999.90;999.90;;;-0.80;99.90;;;;;;4991459;28;20100;-83
2023/03/11 05:11:13;;;;;;;1999.90;999.90;;;-0.20;99.90;;;;;;4993188;28;20050;-84
2023/03/11 05:13:39;;;;;;;1999.90;999.90;;;;;;;;;;4993753;28;20522;-86
2023/03/11 05:16:05;;;;;;;1999.90;999.90;;;0.40;99.90;;;;;;4994580;28;20120;-83
2023/03/11 05:18:31;;;;;;;1999.90;999.90;;;0.70;99.90;;;;;;4994300;28;20539;-83
2023/03/11 05:20:57;;;;;;;1999.90;999.90;;;0.20;99.90;;;;;;4975471;28;20046;-83
2023/03/11 05:23:23;;;;;;;1999.90;999.90;;;0.60;99.90;;;;;;4992644;28;20274;-84
2023/03/11 05:25:48;;;;;;;1999.90;999.90;;;1.50;99.90;;;;;;4975217;28;20069;-84
2023/03/11 05:28:16;;;;;;;1999.90;999.90;;;0.10;99.90;;;;;;4990895;28;20049;-84
2023/03/11 05:30:45;;;;;;;1999.90;999.90;;;0.30;99.90;;;;;;4992555;28;20046;-87
2023/03/11 05:33:10;;;;;;;1999.90;999.90;;;0.90;99.90;;;;;;4993355;28;20482;-87
2023/03/11 05:35:36;;;;;;;1999.90;999.90;;;0.60;99.90;;;;;;4992743;28;20050;-90
2023/03/11 05:38:02;;;;;;;1999.90;999.90;;;1.10;99.90;;;;;;4992928;28;20070;-86
2023/03/11 05:40:27;;;;;;;1999.90;999.90;;;0.00;99.90;;;;;;4993122;28;20056;-86
2023/03/11 05:42:53;;;;;;;1999.90;999.90;;;;;;;;;;4975159;28;20054;-86
2023/03/11 05:45:20;;;;;;;1999.90;999.90;;;;;;;;;;4991903;28;20479;-87
2023/03/11 05:47:45;;;;;;;1999.90;999.90;;;1.00;99.90;;;;;;4992770;28;20058;-86
2023/03/11 05:50:12;;;;;;;1999.90;999.90;;;-0.10;99.90;;;;;;4992879;28;20081;-86
2023/03/11 05:52:37;;;;;;;1999.90;999.90;;;1.20;99.90;;;;;;4992966;28;20053;-87
2023/03/11 05:55:04;;;;;;;1999.90;999.90;;;-0.70;99.90;;;;;;4991555;28;20054;-87
2023/03/11 05:57:30;;;;;;;1999.90;999.90;;;;;;;;;;4993120;28;20051;-86
2023/03/11 05:59:55;;;;;;;1999.90;999.90;;;-0.60;95.00;;;;;;4975952;28;20518;-87
2023/03/11 06:02:22;;;;;;;1999.90;999.90;;;-1.20;99.90;;;;;;4993230;28;20080;-86
2023/03/11 06:04:47;;;;;;;1999.90;999.90;;;2.00;99.90;;;;;;4993745;28;20165;-85
2023/03/11 06:07:15;;;;;;;1999.90;999.90;;;-0.20;99.90;;;;;;4974387;28;20137;-86
2023/03/11 06:09:40;;;;;;;1999.90;999.90;;;1.90;99.90;;;;;;4982122;28;20056;-87
2023/03/11 06:12:06;;;;;;;1999.90;999.90;;;0.70;22.90;;;;;;4976774;28;20133;-85
2023/03/11 06:14:32;;;;;;;1999.90;999.90;;;0.30;25.30;;;;;;4975550;28;20039;-85
2023/03/11 06:16:58;;;;;;;1999.90;999.90;;;0.20;76.20;;;;;;4992632;28;20043;-88
2023/03/11 06:19:25;;;;;;;1999.90;999.90;;;;;;;;;;4993691;28;20069;-85
2023/03/11 06:21:51;;;;;;;1999.90;999.90;;;0.00;87.00;;;;;;4992024;28;20042;-85
2023/03/11 06:24:17;;;;;;;1999.90;999.90;;;0.40;76.00;;;;;;4992537;28;20077;-85
2023/03/11 06:26:43;;;;;;;1999.90;999.90;;;0.00;95.20;;;;;;4992357;28;20115;-85
2023/03/11 06:29:13;;;;;;;1999.90;999.90;;;0.30;33.90;;;;;;4992939;28;20133;-86
2023/03/11 06:31:40;;;;;;;1999.90;999.90;;;1.90;65.10;;;;;;4991674;28;20121;-86
2023/03/11 06:34:06;;;;;;;1999.90;999.90;;;0.80;58.50;;;;;;4990094;28;20046;-86
2023/03/11 06:36:32;;;;;;;1999.90;999.90;;;2.40;41.60;;;;;;4992241;28;20121;-87
2023/03/11 06:38:58;;;;;;;1999.90;999.90;;;-0.80;1.00;;;;;;4992010;28;20109;-86
2023/03/11 06:41:24;;;;;;;1999.90;999.90;;;;;;;;;;4992136;28;20046;-86
2023/03/11 06:43:50;;;;;;;1999.90;999.90;;;0.30;1.00;;;;;;4974608;28;20042;-86
2023/03/11 06:46:18;;;;;;;1999.90;999.90;;;-0.10;1.00;;;;;;4992732;28;20053;-86
2023/03/11 06:48:45;;;;;;;1999.90;999.90;;;3.50;1.00;;;;;;4993837;28;20057;-86
2023/03/11 06:51:11;;;;;;;1999.90;999.90;;;1.50;1.00;;;;;;4994900;28;20109;-86
2023/03/11 06:53:38;;;;;;;1999.90;999.90;;;0.60;1.00;;;;;;4977652;28;20085;-87
2023/03/11 06:56:09;;;;;;;1999.90;999.90;;;-0.10;1.00;;;;;;4995599;28;20046;-86
2023/03/11 06:58:37;;;;;;;1999.90;999.90;;;1.10;1.00;;;;;;4997169;28;20046;-88
2023/03/11 07:01:09;;;;;;;1999.90;999.90;;;1.50;99.90;;;;;;4995333;28;20053;-87
2023/03/11 07:03:34;;;;;;;1999.90;999.90;;;0.90;99.90;;;;;;4995554;28;20066;-86
2023/03/11 07:06:01;;;;;;;1999.90;999.90;;;;;;;;;;4979191;28;20047;-86
2023/03/11 07:08:26;;;;;;;1999.90;999.90;;;0.60;99.90;;;;;;4981857;28;20133;-86
2023/03/11 07:11:20;;;;;;;1999.90;999.90;;;0.20;99.90;;;;;;4988053;28;20074;-87
2023/03/11 07:13:46;;;;;;;1999.90;999.90;;;0.40;99.90;;;;;;4977284;28;20157;-86
2023/03/11 07:16:31;;;;;;;1999.90;999.90;;;-0.10;99.90;;;;;;4979441;28;20082;-86
2023/03/11 07:18:59;;;;;;;1999.90;999.90;;;1.20;99.90;;;;;;4994733;28;20054;-85
2023/03/11 07:21:26;;;;;;;1999.90;999.90;;;0.80;99.90;;;;;;4995823;28;20066;-86
2023/03/11 07:23:57;;;;;;;1999.90;999.90;;;0.80;99.90;;;;;;4992279;28;20097;-87
2023/03/11 07:26:24;;;;;;;1999.90;999.90;;;3.30;99.90;;;;;;4994850;28;20129;-87
2023/03/11 07:28:51;;;;;;;1999.90;999.90;;;0.60;99.90;;;;;;4975654;28;20051;-86
2023/03/11 07:31:20;;;;;;;1999.90;999.90;;;1.20;99.90;;;;;;4988645;28;20046;-85
2023/03/11 07:33:46;;;;;;;1999.90;999.90;;;0.20;88.50;;;;;;4993559;28;20506;-86
2023/03/11 07:36:17;;;;;;;1999.90;999.90;;;2.70;14.90;;;;;;4977593;28;20112;-86
2023/03/11 07:38:45;;;;;;;1999.90;999.90;;;1.00;1.00;;;;;;4993612;28;20070;-86
2023/03/11 07:41:13;;;;;;;1999.90;999.90;;;3.50;1.00;;;;;;4995333;28;20046;-87
2023/03/11 07:43:42;;;;;;;1999.90;999.90;;;0.30;99.90;;;;;;4993359;28;20073;-86
2023/03/11 07:46:17;;;;;;;1999.90;999.90;;;1.50;99.90;;;;;;4975743;28;20051;-86
2023/03/11 07:48:44;;;;;;;1999.90;999.90;;;0.20;99.90;;;;;;4985425;28;20090;-86
2023/03/11 07:51:21;;;;;;;1999.90;999.90;;;0.90;99.90;;;;;;4990602;28;20491;-87
2023/03/11 07:53:48;;;;;;;1999.90;999.90;;;1.20;99.90;;;;;;4992203;28;20555;-85
2023/03/11 07:56:16;;;;;;;1999.90;999.90;;;1.10;73.50;;;;;;4992805;28;20062;-88
2023/03/11 07:58:42;;;;;;;1999.90;999.90;;;1.30;65.30;;;;;;4991041;28;20058;-87
2023/03/11 08:01:09;;;;;;;1999.90;999.90;;;1.50;7.00;;;;;;4992751;28;20038;-86
2023/03/11 08:03:35;;;;;;;1999.90;999.90;;;1.80;1.00;;;;;;4991808;28;20050;-87
2023/03/11 08:06:03;;;;;;;1999.90;999.90;;;2.10;1.00;;;;;;4993818;28;20178;-86
2023/03/11 08:08:28;;;;;;;1999.90;999.90;;;0.80;99.90;;;;;;4991373;28;20069;-86
2023/03/11 08:10:54;;;;;;;1999.90;999.90;;;-0.20;99.90;;;;;;4990058;28;20558;-85
2023/03/11 08:13:20;;;;;;;1999.90;999.90;;;;;;;;;;4991404;28;20046;-84
2023/03/11 08:15:46;;;;;;;1999.90;999.90;;;0.60;99.90;;;;;;4985715;28;20042;-83
2023/03/11 08:18:12;;;;;;;1999.90;999.90;;;1.40;99.90;;;;;;4988160;28;20886;-87
2023/03/11 08:20:38;;;;;;;1999.90;999.90;;;4.50;99.90;;;;;;4987144;28;20053;-86
2023/03/11 08:23:04;;;;;;;1999.90;999.90;;;1.90;99.90;;;;;;4987248;28;20048;-82
2023/03/11 08:25:30;;;;;;;1999.90;999.90;;;;;;;;;;4985851;28;20073;-86
2023/03/11 08:27:56;;;;;;;1999.90;999.90;;;3.10;1.00;;;;;;4986728;28;20047;-83
2023/03/11 08:30:21;;;;;;;1999.90;999.90;;;0.40;1.00;;;;;;4991575;28;20042;-84
2023/03/11 08:32:48;;;;;;;1999.90;999.90;;;;;;;;;;4974722;28;20474;-83
2023/03/11 08:35:14;;;;;;;1999.90;999.90;;;;;;;;;;4993157;28;20056;-85
2023/03/11 08:37:40;;;;;;;1999.90;999.90;;;3.20;99.90;;;;;;4991021;28;20042;-83
2023/03/11 08:40:06;;;;;;;1999.90;999.90;;;1.80;99.90;;;;;;4993260;28;20108;-83
2023/03/11 08:42:32;;;;;;;1999.90;999.90;;;;;;;;;;4993278;28;20042;-84
2023/03/11 08:44:58;;;;;;;1999.90;999.90;;;;;;;;;;5004596;28;20100;-86
2023/03/11 08:47:24;;;;;;;1999.90;999.90;;;0.60;99.90;;;;;;4987361;28;20439;-85
2023/03/11 08:49:50;;;;;;;1999.90;999.90;;;3.00;99.90;;;;;;4991798;28;20061;-85
2023/03/11 08:52:15;;;;;;;1999.90;999.90;;;2.80;99.90;;;;;;4991257;28;20064;-86
2023/03/11 08:54:41;;;;;;;1999.90;999.90;;;4.40;99.90;;;;;;4975624;28;20051;-86
2023/03/11 08:57:07;;;;;;;1999.90;999.90;;;2.00;99.90;;;;;;4993182;28;20038;-85
2023/03/11 08:59:33;;;;;;;1999.90;999.90;;;4.90;99.30;;;;;;4991794;28;20112;-86
2023/03/11 09:01:58;;;;;;;1999.90;999.90;;;2.90;64.50;;;;;;4988493;28;20034;-86
2023/03/11 09:04:24;;;;;;;1999.90;999.90;;;2.60;13.50;;;;;;4988883;28;20629;-86
2023/03/11 09:06:50;;;;;;;1999.90;999.90;;;4.70;1.00;;;;;;4990854;28;20093;-85
2023/03/11 09:09:19;;;;;;;1999.90;999.90;;;2.80;1.00;;;;;;4979991;28;20093;-86
2023/03/11 09:11:46;;;;;;;1999.90;999.90;;;3.00;1.00;;;;;;4993405;28;20096;-85
2023/03/11 09:14:12;;;;;;;1999.90;999.90;;;3.00;1.00;;;;;;4993771;28;20442;-86
2023/03/11 09:16:37;;;;;;;1999.90;999.90;;;3.20;1.00;;;;;;4994110;28;20077;-86
2023/03/11 09:19:06;;;;;;;1999.90;999.90;;;;;;;;;;4993806;28;20104;-86
2023/03/11 09:21:33;;;;;;;1999.90;999.90;;;3.30;99.90;;;;;;4991162;28;20490;-88
2023/03/11 09:24:00;;;;;;;1999.90;999.90;;;3.30;99.90;;;;;;4993531;28;20356;-88
2023/03/11 09:26:26;;;;;;;1999.90;999.90;;;5.70;99.90;;;;;;4991955;28;20478;-87
2023/03/11 09:28:51;;;;;;;1999.90;999.90;;;3.90;99.90;;;;;;4992720;28;20050;-88
2023/03/11 09:31:17;;;;;;;1999.90;999.90;;;3.70;99.90;;;;;;4993094;28;20073;-89
2023/03/11 09:33:44;;;;;;;1999.90;861.80;;;3.80;99.90;;;;;;4993646;28;20049;-91
2023/03/11 09:36:16;;;;;;;1999.90;999.90;;;4.00;99.90;;;;;;4991573;28;20042;-90
2023/03/11 09:38:43;;;;;;;1999.90;999.90;;;;;;;;;;4991269;28;20074;-91
2023/03/11 09:41:47;;;;;;;1999.90;958.17;;;4.40;93.10;;;;;;4992924;28;20046;-92
2023/03/11 09:44:32;;;;;;;1999.90;999.90;;;4.60;25.00;;;;;;4969394;28;20046;-93
2023/03/11 09:47:40;;;;;;;1999.90;999.90;;;4.90;1.00;;;;;;4986210;28;20359;-91
2023/03/11 09:50:39;;;;;;;1999.90;999.90;;;5.70;1.00;;;;;;4983446;28;20086;-92
2023/03/11 09:53:42;;;;;;;1999.90;999.90;;;5.60;99.90;;;;;;4993861;28;20050;-90
2023/03/11 09:56:17;;;;;;;1999.90;903.10;;;6.00;99.90;;;;;;4982983;28;20058;-90
2023/03/11 09:58:47;;;;;;;1999.90;995.22;;;6.10;99.90;;;;;;4991441;28;20057;-91
2023/03/11 10:01:23;;;;;;;1999.90;999.90;;;6.40;99.90;;;;;;4992678;28;20498;-88
2023/03/11 10:03:52;;;;;;;1999.90;999.90;;;6.90;99.90;;;;;;4991869;28;20128;-87
2023/03/11 10:06:23;;;;;;;1999.90;999.90;;;7.00;99.90;;;;;;4993467;28;20050;-87
2023/03/11 10:09:11;;;;;;;1999.90;999.90;;;7.20;99.90;;;;;;4994139;28;20046;-84
2023/03/11 10:11:45;;;;;;;1999.90;999.90;;;7.00;23.20;;;;;;4993765;28;20057;-85
2023/03/11 10:14:27;;;;;;;1999.90;999.90;;;6.80;95.70;;;;;;4985164;28;20034;-84
2023/03/11 10:17:17;;;;;;;1999.90;999.90;;;6.10;98.10;;;;;;4984672;28;20307;-84
2023/03/11 10:20:03;;;;;;;1999.90;999.90;;;5.80;52.20;;;;;;4972741;28;20051;-84
2023/03/11 10:22:38;;;;;;;1999.90;999.90;;;5.40;97.70;;;;;;4973873;28;20053;-84
2023/03/11 10:25:16;;;;;;;1999.90;999.90;;;5.00;76.60;;;;;;4986834;28;20510;-84
2023/03/11 10:27:50;;;;;;;1999.90;597.95;;;6.20;99.90;;;;;;4997132;28;20042;-84
2023/03/11 10:30:34;;;;;;;1999.90;928.60;;;6.40;99.90;;;;;;4995706;28;20113;-84
2023/03/11 10:33:21;;;;;;;1999.90;999.90;;;4.80;99.90;;;;;;4993400;28;20042;-84
2023/03/11 10:35:52;;;;;;;1999.90;999.90;;;4.70;99.90;;;;;;4985313;28;20472;-84
2023/03/11 10:38:25;;;;;;;1999.90;996.42;;;4.20;99.90;;;;;;4995196;28;20440;-84
2023/03/11 10:40:55;;;;;;;1999.90;999.90;;;5.00;99.90;;;;;;4991780;28;20061;-84
2023/03/11 10:43:45;;;;;;;1999.90;845.83;;;4.50;99.90;;;;;;4994915;28;20475;-84
2023/03/11 10:46:22;;;;;;;1999.90;999.90;;;6.90;99.90;;;;;;4993021;28;20047;-85
2023/03/11 10:48:50;;;;;;;1999.90;999.90;;;;;;;;;;4989593;28;20104;-83
2023/03/11 10:51:30;;;;;;;1999.90;999.90;;;7.20;32.40;;;;;;4994206;28;20051;-83
2023/03/11 10:53:57;;;;;;;1999.90;644.05;;;7.20;1.00;;;;;;4994506;28;20085;-84
2023/03/11 10:56:26;;;;;;;1999.90;999.90;;;8.30;1.00;;;;;;4996054;28;20038;-83
2023/03/11 10:58:53;;;;;;;1999.90;999.90;;;8.60;1.00;;;;;;4992511;28;20038;-82
2023/03/11 11:01:22;;;;;;;1999.90;999.90;;;9.40;1.00;;;;;;4992462;28;20076;-84
2023/03/11 11:03:51;;;;;;;1999.90;558.72;;;10.50;1.00;;;;;;4985550;28;20038;-83
2023/03/11 11:06:20;;;;;;;1999.90;999.90;;;11.20;99.90;;;;;;4985484;28;20042;-84
2023/03/11 11:08:46;;;;;;;1999.90;738.15;;;12.30;99.90;;;;;;4983583;28;20633;-83
2023/03/11 11:11:22;;;;;;;1999.90;999.90;;;12.80;99.90;;;;;;4994054;28;20042;-83
2023/03/11 11:14:06;;;;;;;1999.90;999.90;;;12.20;99.90;;;;;;4990314;28;20088;-83
2023/03/11 11:16:35;;;;;;;1999.90;999.90;;;9.40;99.90;;;;;;4987202;28;20038;-84
2023/03/11 11:19:06;;;;;;;1999.90;999.90;;;12.10;99.90;;;;;;4991955;28;20122;-84
2023/03/11 11:21:36;;;;;;;1999.90;999.90;;;12.90;99.90;;;;;;4984655;28;20050;-83
2023/03/11 11:24:14;;;;;;;1999.90;999.90;;;13.10;99.90;;;;;;4988569;28;20041;-84
2023/03/11 11:26:40;;;;;;;1999.90;999.90;;;13.40;99.90;;;;;;4982854;28;20042;-83
2023/03/11 11:29:08;;;;;;;1999.90;999.90;;;13.70;99.90;;;;;;4971449;28;20390;-83
2023/03/11 11:31:36;;;;;;;1999.90;999.90;;;13.80;99.90;;;;;;4991959;28;20064;-84
2023/03/11 11:34:05;;;;;;;1999.90;999.90;;;13.60;99.90;;;;;;4988997;28;20491;-88
2023/03/11 11:36:34;;;;;;;1999.90;999.90;;;13.40;99.90;;;;;;4993025;28;20050;-83
2023/03/11 11:39:03;;;;;;;1999.90;999.90;;;13.30;99.90;;;;;;4992525;28;20082;-82
2023/03/11 11:41:34;;;;;;;1999.90;999.90;;;12.80;99.90;;;;;;4991805;28;20149;-85
2023/03/11 11:44:05;;;;;;;1999.90;999.90;;;12.70;99.90;;;;;;4988040;28;20045;-89
2023/03/11 11:46:42;;;;;;;1999.90;999.90;;;12.90;99.90;;;;;;4986941;28;20050;-93
2023/03/11 11:49:27;;;;;;;1999.90;999.90;;;12.70;99.90;;;;;;4989862;28;20419;-84
2023/03/11 11:52:14;;;;;;;1999.90;999.90;;;12.50;99.90;;;;;;4990200;28;20507;-81
2023/03/11 11:54:48;;;;;;;1999.90;999.90;;;12.60;99.90;;;;;;4987659;28;20054;-85
2023/03/11 11:57:16;;;;;;;1999.90;999.90;;;12.90;99.90;;;;;;4987517;28;20058;-81
2023/03/11 11:59:43;;;;;;;1999.90;999.90;;;12.00;99.90;;;;;;4984447;28;20042;-82
2023/03/11 12:02:17;;;;;;;1999.90;999.90;;;12.50;99.90;;;;;;4990978;28;20042;-80
2023/03/11 12:04:51;;;;;;;1999.90;999.90;;;11.80;99.90;;;;;;4978478;28;20089;-81
2023/03/11 12:07:17;;;;;;;1999.90;999.90;;;12.20;99.90;;;;;;4986536;28;20125;-84
2023/03/11 12:09:46;;;;;;;1999.90;999.90;;;11.40;99.90;;;;;;4988419;28;20054;-80
2023/03/11 12:12:18;;;;;;;1999.90;999.90;;;11.50;99.90;;;;;;4984277;28;20142;-88
2023/03/11 12:15:15;;;;;;;1999.90;999.90;;;12.10;99.90;;;;;;4988450;28;20058;-81
2023/03/11 12:17:44;;;;;;;1999.90;999.90;;;12.00;99.90;;;;;;4981747;28;20050;-85
2023/03/11 12:20:31;;;;;;;1999.90;999.90;;;10.60;99.90;;;;;;4992224;28;20101;-81
2023/03/11 12:23:06;;;;;;;1999.90;999.90;;;9.60;99.90;;;;;;4990896;28;20064;-82
2023/03/11 12:26:10;;;;;;;1999.90;999.90;;;9.20;99.90;;;;;;4985678;28;20459;-81
2023/03/11 12:28:48;;;;;;;1999.90;999.90;;;8.00;99.90;;;;;;4983591;28;20081;-89
2023/03/11 12:31:15;;;;;;;1999.90;999.90;;;7.50;99.90;;;;;;4966261;28;20121;-81